Fukushima, Japan

3:10 PM JST on August 28, 2016 (GMT +0900)
Fukushima | | Change Station

Elev 1220 ft 37.23 °N, 140.43 °E | Updated 10 minutes ago

Light Rain Showers
Light Showers Rain
70 °F
Feels Like 70 °F
N
5
Wind Variable Wind from NNW

Today
High -- | Low -- °F
--% Chance of Precip.
Yesterday
High -- | Low -- °F
Precip. -- in
Pressure 29.65 in
Visibility 6.2 miles
Clouds Few 900 ft
Mostly Cloudy 1500 ft
Mostly Cloudy 2000 ft
Dew Point 68 °F
Humidity 94%
Rainfall 0.00 in
Snow Depth Not available.
5:05 AM 6:12 PM
Waning Crescent, 18% visible
METAR RJSF 280600Z 33004KT 290V360 9999 -SHRA FEW009 BKN015 BKN020 21/20 Q1004
Pressure 29.65 in
Visibility 6.2 miles
Clouds Few 900 ft
Mostly Cloudy 1500 ft
Mostly Cloudy 2000 ft
Dew Point 68 °F
Humidity 94%
Rainfall 0.00 in
Snow Depth Not available.
5:05 AM 6:12 PM
Waning Crescent, 18% visible
METAR RJSF 280600Z 33004KT 290V360 9999 -SHRA FEW009 BKN015 BKN020 21/20 Q1004

10-Day Weather Forecast

No radar image for this location.
×

Almanac

Astronomy

Aug. 28, 2016 Rise Set
Actual Time
Civil Twilight
Nautical Twilight
Astronomical Twilight
Moon
Length of Visible Light
Length of Day
Tomorrow will be .
, % of the Moon is Illuminated

Today's Extremes

Country Highs Country Lows

Community

WunderPhotos

Upload Photos

1,935,533 photos uploaded!

WunderBlog® & News

Nearby

Air Quality

  Air Quality AQ Index Pollutant
Not available.

Snow Depth

Station Depth Elevation

Earthquake Activity

City Distance Mag. Time & Date
Minimum magnitude displayed is 2.5.

Coastal Water Temperatures

Place Temperature

Stations

Nearby Weather Stations

Station Location Temp. Windchill Dew Point Humidity Wind Precip. Elev Updated Type